• Join FlightAware (Why Join?)
  • Login
  • US Flag 
02:03PM EDT


 

Airport Tracker/Info


-or-


 

Live Flight TrackerFlight Track Log ✈ EMD26 ✈ 27-Jun-2013 ✈ KRVS - KPOF

Flight Track Log - Related Links

Times and Time Zones

All times are in EDT time to prevent confusion due to time zone crossing. See the EMD26 flight status page for this flight to view local times or setup timezone preferences in your user account.

Time Position Orientation Groundspeed Altitude Reporting Facility
EDT Latitude Longitude Course Direction KTS MPH feet Rate Location/Type
06:35PM 36.0153 -95.9925 194° South 138 159 1,300  Level Kansas City Center
06:37PM 35.9703 -96.0061 194° South 122 140 3,400 1,260 Climbing Kansas City Center
06:38PM 35.9589 -95.9689 111° Southeast 145 167 4,500 1,080 Climbing Kansas City Center
06:39PM 35.9617 -95.9144 86° East 152 175 5,800 1,320 Climbing Kansas City Center
06:40PM 35.9672 -95.8539 84° East 150 173 7,500 1,260 Climbing Kansas City Center
06:41PM 35.9703 -95.8047 86° East 145 167 8,500 1,020 Climbing Kansas City Center
06:42PM 35.9744 -95.7542 84° East 147 169 9,700 1,080 Climbing Kansas City Center
06:43PM 35.9767 -95.7050 87° East 145 167 10,800 960 Climbing Kansas City Center
06:44PM 35.9797 -95.6569 85° East 142 163 11,800 900 Climbing Kansas City Center
06:45PM 35.9833 -95.6075 85° East 143 165 12,700 780 Climbing Kansas City Center
06:46PM 35.9864 -95.5528 86° East 153 176 13,500 720 Climbing Kansas City Center
06:47PM 35.9919 -95.4811 85° East 169 194 14,300 720 Climbing Kansas City Center
06:48PM 35.9950 -95.4206 86° East 175 201 15,100 660 Climbing Kansas City Center
06:49PM 35.9981 -95.3608 86° East 175 201 15,700 600 Climbing Kansas City Center
06:50PM 36.0047 -95.3008 82° East 176 203 16,400 600 Climbing Kansas City Center
06:51PM 36.0178 -95.2411 75° East 178 205 17,000 480 Climbing Kansas City Center
06:52PM 36.0286 -95.1797 78° East 181 208 17,500 540 Climbing Kansas City Center
06:53PM 36.0406 -95.1008 79° East 192 221 18,200 720 Climbing Kansas City Center
06:54PM 36.0531 -95.0408 76° East 185 213 19,000 720 Climbing Kansas City Center
06:55PM 36.0642 -94.9864 76° East 171 197 19,700 480 Climbing Kansas City Center
06:56PM 36.0714 -94.9289 81° East 168 193 20,100 420 Climbing Kansas City Center
06:58PM 36.0833 -94.8644 77° East 172 198 20,700 360 Climbing Memphis Center
06:59PM 36.0961 -94.8033 75° East 172 198 21,000 120 Climbing Memphis Center
07:00PM 36.1044 -94.7397 81° East 172 198 21,000  Level Memphis Center
07:01PM 36.1153 -94.6708 79° East 190 219 21,000  Level Memphis Center
07:02PM 36.1281 -94.5994 77° East 202 232 21,000  Level Memphis Center
07:03PM 36.1411 -94.5283 77° East 207 238 21,000  Level Memphis Center
07:04PM 36.1517 -94.4594 79° East 207 238 21,000  Level Memphis Center
07:05PM 36.1667 -94.3856 76° East 207 238 21,000  Level Memphis Center
07:06PM 36.1772 -94.3142 80° East 207 238 21,000  Level Memphis Center
07:07PM 36.1900 -94.2403 78° East 213 245 21,000  Level Memphis Center
07:08PM 36.2025 -94.1686 78° East 213 245 21,000  Level Memphis Center
07:09PM 36.2153 -94.0947 78° East 218 251 21,000  Level Memphis Center
07:10PM 36.2256 -94.0258 80° East 218 251 21,000  Level Memphis Center
07:11PM 36.2383 -93.9517 78° East 218 251 21,000  Level Memphis Center
07:12PM 36.2511 -93.8700 79° East 218 251 21,000  Level Memphis Center
07:13PM 36.2633 -93.7983 78° East 218 251 21,000  Level Memphis Center
07:14PM 36.2756 -93.7397 75° East 218 251 21,000  Level Memphis Center
07:15PM 36.2819 -93.6550 85° East 218 251 21,000  Level Memphis Center
07:16PM 36.2964 -93.5808 76° East 218 251 21,000  Level Memphis Center
07:17PM 36.3086 -93.5042 79° East 218 251 21,000  Level Memphis Center
07:18PM 36.3189 -93.4272 81° East 218 251 21,000  Level Memphis Center
07:19PM 36.3311 -93.3531 78° East 218 251 21,000  Level Memphis Center
07:20PM 36.3433 -93.2761 79° East 218 251 21,000  Level Memphis Center
07:21PM 36.3575 -93.2044 76° East 218 251 21,000  Level Memphis Center
07:22PM 36.3678 -93.1275 81° East 218 251 21,000  Level Memphis Center
07:23PM 36.3797 -93.0506 79° East 218 251 21,000  Level Memphis Center
07:24PM 36.3917 -92.9764 79° East 218 251 21,000  Level Memphis Center
07:25PM 36.4036 -92.9019 79° East 218 251 21,000  Level Memphis Center
07:26PM 36.4136 -92.8222 81° East 218 251 21,000 -360 Level Memphis Center
07:27PM 36.4275 -92.7478 77° East 218 251 20,300 -1,080 Descending Memphis Center
07:28PM 36.4419 -92.6553 79° East 242 278 18,900 -1,500 Descending Memphis Center
07:29PM 36.4561 -92.5628 79° East 256 295 17,400 -1,500 Descending Memphis Center
07:30PM 36.4661 -92.4703 82° East 261 300 15,900 -1,140 Descending Memphis Center
07:31PM 36.4842 -92.3881 75° East 256 295 15,200 -480 Descending Memphis Center
07:32PM 36.4981 -92.3008 79° East 256 295 15,000 -60 Descending Memphis Center
07:33PM 36.5075 -92.2183 82° East 251 289 15,100  Climbing Memphis Center
07:34PM 36.5211 -92.1361 78° East 251 289 15,100  Level Memphis Center
07:35PM 36.5350 -92.0536 78° East 246 283 15,100  Level Memphis Center
07:36PM 36.5464 -91.9714 80° East 240 276 15,100  Level Memphis Center
07:37PM 36.5558 -91.8914 82° East 235 270 15,100 -600 Level Memphis Center
07:38PM 36.5714 -91.8011 78° East 243 280 13,900 -1,200 Descending Memphis Center
07:39PM 36.5828 -91.7136 81° East 255 293 12,800 -1,260 Descending Memphis Center
07:40PM 36.5961 -91.6258 79° East 255 293 11,400 -1,320 Descending Memphis Center
07:41PM 36.6053 -91.5433 82° East 255 293 10,200 -1,200 Descending Memphis Center
07:42PM 36.6186 -91.4531 80° East 256 295 9,100 -1,080 Descending Memphis Center
07:43PM 36.6339 -91.3706 77° East 251 289 8,100 -1,020 Descending Memphis Center
07:44PM 36.6450 -91.2881 80° East 246 283 7,100 -900 Descending Memphis Center
07:45PM 36.6539 -91.2078 82° East 239 275 6,300 -900 Descending Memphis Center
07:46PM 36.6669 -91.1253 79° East 234 269 5,400 -660 Descending Memphis Center
07:47PM 36.6694 -91.0553 87° East 229 264 5,000 -420 Descending Memphis Center